Matteo Br — 9HA2979 — position and weather

sailwx.info

Track history (hours):
 
Tides and Currents Weather Stations Pressure Air Temp Water Temp Dewpoint Dewpoint Depression Visibility Wind Speed Wind Dir Waves Ship Positions

Matteo Br

Last reported at 2017-Nov-23 19:28 UTC. Time now 2017-Nov-24 22:14 UTC.
Position N 55°45' E 016°32'.

Length 157 m; draft 6.3 m.

Type: Cargo ship. MMSI: 229002000.

Date/timePositionNaut miles runAvg speedWind from/ knotsBaromVisibWave heightAir tempDewpointWater temp
2017-Nov-23 19:28N 55°45' E 016°32'613.9
2017-Nov-23 19:00N 55°44' E 016°21'713.8
2017-Nov-23 18:30N 55°42' E 016°09'713.7
2017-Nov-23 18:00N 55°40' E 015°57'713.6
2017-Nov-23 17:30N 55°39' E 015°46'713.6
2017-Nov-23 17:00N 55°37' E 015°34'713.7
2017-Nov-23 16:30N 55°35' E 015°23'713.8
2017-Nov-23 16:00N 55°32' E 015°12'714.0
2017-Nov-23 15:30N 55°29' E 015°00'713.8
2017-Nov-23 15:00N 55°26' E 014°49'713.7
2017-Nov-23 14:30N 55°23' E 014°39'713.4
2017-Nov-23 14:00N 55°18' E 014°31'713.7
2017-Nov-23 13:30N 55°12' E 014°24'1112.2
2017-Nov-23 12:35N 55°10' E 014°05'1712.7
2017-Nov-23 11:14N 55°11' E 013°35'312.5
2017-Nov-23 11:00N 55°11' E 013°30'612.6
2017-Nov-23 10:30N 55°11' E 013°19'713.1
2017-Nov-23 10:00N 55°12' E 013°07'612.8
2017-Nov-23 09:30N 55°14' E 012°57'612.6
2017-Nov-23 09:00N 55°16' E 012°47'611.9
2017-Nov-23 08:30N 55°19' E 012°37'611.7
2017-Nov-23 08:00N 55°25' E 012°39'611.6
2017-Nov-23 07:30N 55°30' E 012°41'5 9.7
2017-Nov-23 07:00N 55°35' E 012°42'5 9.5
2017-Nov-23 06:30N 55°40' E 012°41'5 9.8
2017-Nov-23 06:00N 55°45' E 012°41'510.1
2017-Nov-23 05:30N 55°50' E 012°41'611.1
2017-Nov-23 05:00N 55°55' E 012°38'611.2
2017-Nov-23 04:30N 56°01' E 012°38'4 8.3
2017-Nov-23 04:00N 56°05' E 012°36'5 9.8
2017-Nov-23 03:30N 56°08' E 012°29'611.9
2017-Nov-23 03:00N 56°11' E 012°20'612.6
2017-Nov-23 02:30N 56°15' E 012°11'1111.3
2017-Nov-23 01:32N 56°24' E 012°01'011.8
2017-Nov-23 01:30N 56°24' E 012°00'3611.4
2017-Nov-22 22:21N 56°59' E 011°43'811.2
2017-Nov-22 21:38N 57°06' E 011°38'111.2
2017-Nov-22 21:30N 57°08' E 011°37'611.0
2017-Nov-22 20:59N 57°13' E 011°33'611.2
2017-Nov-22 20:30N 57°18' E 011°28'611.4
2017-Nov-22 20:00N 57°22' E 011°21'611.9
2017-Nov-22 19:30N 57°23' E 011°11'  
2017-Nov-20 00:30N 53°44' W 000°16'0 0.0
2017-Nov-20 00:00N 53°44' W 000°16'0 0.0
2017-Nov-19 23:30N 53°44' W 000°16'0 0.0
2017-Nov-19 23:00N 53°44' W 000°16'0 0.0
2017-Nov-19 22:30N 53°44' W 000°16'0 0.0
2017-Nov-19 22:00N 53°44' W 000°16'0 0.0
2017-Nov-19 21:30N 53°44' W 000°16'0 0.0
2017-Nov-19 21:00N 53°44' W 000°16'0 0.0
2017-Nov-19 20:30N 53°44' W 000°16'0 0.0
2017-Nov-19 19:54N 53°44' W 000°16'0 0.0
2017-Nov-19 19:30N 53°44' W 000°16'0 0.0
2017-Nov-19 19:00N 53°44' W 000°16'0 0.0
2017-Nov-19 18:30N 53°44' W 000°16'0 0.0
2017-Nov-19 18:00N 53°44' W 000°16'0 0.0
2017-Nov-19 17:30N 53°44' W 000°16'0 0.0
2017-Nov-19 17:00N 53°44' W 000°16'0 0.0
2017-Nov-19 16:30N 53°44' W 000°16'0 0.0
2017-Nov-19 16:00N 53°44' W 000°16'0 0.0
2017-Nov-19 15:30N 53°44' W 000°16'0 0.0
2017-Nov-19 15:00N 53°44' W 000°16'0 0.0
2017-Nov-19 14:30N 53°44' W 000°16'0 0.0
2017-Nov-19 14:00N 53°44' W 000°16'0 0.0
2017-Nov-19 13:30N 53°44' W 000°16'0 0.0
2017-Nov-19 13:00N 53°44' W 000°16'0 0.0
2017-Nov-19 12:30N 53°44' W 000°16'0 0.0
2017-Nov-19 12:00N 53°44' W 000°16'0 0.0
2017-Nov-19 11:30N 53°44' W 000°16'0 0.0
2017-Nov-19 11:00N 53°44' W 000°16'0 0.0
2017-Nov-19 10:30N 53°44' W 000°16'0 0.0
2017-Nov-19 10:00N 53°44' W 000°16'0 0.0
2017-Nov-19 09:30N 53°44' W 000°16'0 0.0
2017-Nov-19 09:00N 53°44' W 000°16'0 0.0
2017-Nov-19 08:30N 53°44' W 000°16'0 0.0
2017-Nov-19 08:00N 53°44' W 000°16'0 0.0
2017-Nov-19 07:30N 53°44' W 000°16'0 0.0
2017-Nov-19 07:00N 53°44' W 000°16'0 0.0
2017-Nov-19 06:30N 53°44' W 000°16'0 0.0
2017-Nov-19 06:00N 53°44' W 000°16'0 0.0
2017-Nov-19 05:30N 53°44' W 000°16'0 0.0
2017-Nov-19 05:00N 53°44' W 000°16'0 0.0
2017-Nov-19 04:30N 53°44' W 000°16'0 0.0
2017-Nov-19 04:00N 53°44' W 000°16'0 0.0
2017-Nov-19 03:30N 53°44' W 000°16'0 0.0
2017-Nov-19 03:00N 53°44' W 000°16'0 0.0
2017-Nov-19 02:30N 53°44' W 000°16'0 0.0
2017-Nov-19 02:00N 53°44' W 000°16'0 0.0
2017-Nov-19 01:30N 53°44' W 000°16'0 0.0
2017-Nov-19 01:00N 53°44' W 000°16'0 0.0
2017-Nov-19 00:30N 53°44' W 000°16'0 0.0
2017-Nov-19 00:00N 53°44' W 000°16'0 0.0
2017-Nov-18 23:30N 53°44' W 000°16'0 0.0
2017-Nov-18 23:00N 53°44' W 000°16'0 0.0
2017-Nov-18 22:30N 53°44' W 000°16'0 0.0
2017-Nov-18 22:00N 53°44' W 000°16'0 0.0
2017-Nov-18 21:30N 53°44' W 000°16'0 0.0
2017-Nov-18 21:00N 53°44' W 000°16'0 0.0
2017-Nov-18 20:30N 53°44' W 000°16'0 0.0
2017-Nov-18 20:00N 53°44' W 000°16'0 0.0
2017-Nov-18 19:27N 53°44' W 000°16'0 0.0
2017-Nov-18 19:00N 53°44' W 000°16'0 0.0
2017-Nov-18 18:30N 53°44' W 000°16'0 0.7
2017-Nov-18 18:00N 53°44' W 000°16'0 0.3
2017-Nov-18 17:30N 53°44' W 000°16'1 1.3
2017-Nov-18 17:00N 53°44' W 000°16'2 4.9
2017-Nov-18 16:30N 53°42' W 000°14'4 7.4
2017-Nov-18 16:00N 53°38' W 000°11'5 9.1
2017-Nov-18 15:30N 53°37' W 000°04'611.5
2017-Nov-18 15:00N 53°35' E 000°05'510.4
2017-Nov-18 14:30N 53°33' E 000°14'5 9.3
2017-Nov-18 14:00N 53°36' E 000°19'61 4.0
2017-Nov-17 22:29N 53°20' E 001°59'510.4
2017-Nov-17 22:00N 53°17' E 002°06'5 9.9
2017-Nov-17 21:30N 53°14' E 002°12'5 9.3
2017-Nov-17 21:00N 53°11' E 002°17'8610.9
2017-Nov-17 13:10N 51°45' E 002°08'313.1
2017-Nov-17 12:56N 51°43' E 002°06'512.9
2017-Nov-17 12:30N 51°38' E 002°02'713.1
2017-Nov-17 12:00N 51°32' E 001°58'510.8
2017-Nov-17 11:30N 51°27' E 002°00'510.6
2017-Nov-17 11:00N 51°21' E 001°59'612.7
2017-Nov-17 10:30N 51°16' E 001°53'612.3
2017-Nov-17 10:00N 51°11' E 001°47'611.7
2017-Nov-17 09:30N 51°07' E 001°41'511.0
2017-Nov-17 09:00N 51°03' E 001°35'510.3
2017-Nov-17 08:30N 50°59' E 001°30'5 9.0
2017-Nov-17 08:00N 50°55' E 001°25'4 8.8
2017-Nov-17 07:30N 50°51' E 001°24'4 8.7
2017-Nov-17 07:00N 50°47' E 001°22'4 8.7
2017-Nov-17 06:30N 50°43' E 001°20'33 8.9
2017-Nov-17 02:47N 50°26' E 000°35'7 9.3
2017-Nov-17 01:59N 50°24' E 000°24'4 9.2
2017-Nov-17 01:30N 50°22' E 000°17'5 9.3
2017-Nov-17 01:00N 50°21' E 000°10'5 9.5
2017-Nov-17 00:30N 50°20' E 000°03'5 9.6
2017-Nov-17 00:00N 50°19' W 000°04'4811.5
2017-Nov-16 19:50N 50°06' W 001°17'514.7
2017-Nov-16 19:31N 50°05' W 001°24'714.9
2017-Nov-16 19:01N 50°03' W 001°35'815.2
2017-Nov-16 18:30N 50°01' W 001°47'815.3
2017-Nov-16 18:01N 49°59' W 001°58'714.8
2017-Nov-16 17:30N 49°57' W 002°09'2413.3
2017-Nov-16 15:43N 49°51' W 002°45'312.5
2017-Nov-16 15:30N 49°50' W 002°49'812.1
2017-Nov-16 14:52N 49°46' W 002°60'411.7
2017-Nov-16 14:30N 49°44' W 003°05'5911.2
2017-Nov-16 09:17N 49°15' W 004°24'410.7
2017-Nov-16 08:53N 49°13' W 004°29'1010.6
2017-Nov-16 07:59N 49°08' W 004°42'7 9.7
2017-Nov-16 07:19N 49°05' W 004°50'410.2
2017-Nov-16 06:58N 49°03' W 004°55'511.2
2017-Nov-16 06:30N 49°00' W 005°02'711.4
2017-Nov-16 05:55N 48°57' W 005°11'511.6
2017-Nov-16 05:27N 48°54' W 005°18'511.9
2017-Nov-16 05:00N 48°52' W 005°25'812.4
2017-Nov-16 04:23N 48°48' W 005°35'612.1
2017-Nov-16 03:52N 48°43' W 005°40'512.5
2017-Nov-16 03:27N 48°38' W 005°44'612.6
2017-Nov-16 03:00N 48°33' W 005°48'612.5
2017-Nov-16 02:30N 48°27' W 005°52'713.1
2017-Nov-16 02:00N 48°22' W 005°57'613.0
2017-Nov-16 01:31N 48°16' W 006°01'713.1
2017-Nov-16 00:56N 48°09' W 006°06'613.1
2017-Nov-16 00:29N 48°04' W 006°11'713.2
2017-Nov-15 23:58N 47°58' W 006°15'713.1
2017-Nov-15 23:27N 47°52' W 006°20'713.0
2017-Nov-15 22:53N 47°45' W 006°25'712.8
2017-Nov-15 22:22N 47°40' W 006°29'512.6
2017-Nov-15 21:57N 47°35' W 006°33'712.5
2017-Nov-15 21:23N 47°29' W 006°38'511.8
2017-Nov-15 20:56N 47°24' W 006°41'3011.9
2017-Nov-15 18:24N 46°57' W 007°02'912.1
2017-Nov-15 17:41N 46°49' W 007°08'46410.6
2017-Nov-13 21:49N 39°20' W 009°51'  
Track history (hours):
 
Tides and Currents Weather Stations Pressure Air Temp Water Temp Dewpoint Dewpoint Depression Visibility Wind Speed Wind Dir Waves Ship Positions

Matteo Br

Last reported at 2017-Nov-23 19:28 UTC. Time now 2017-Nov-24 22:14 UTC.
Position N 55°45' E 016°32'.

Length 157 m; draft 6.3 m.

Type: Cargo ship. MMSI: 229002000.

Date/timePositionNaut miles runAvg speedWind from/ knotsBaromVisibWave heightAir tempDewpointWater temp
2017-Nov-23 19:28N 55°45' E 016°32'613.9
2017-Nov-23 19:00N 55°44' E 016°21'713.8
2017-Nov-23 18:30N 55°42' E 016°09'713.7
2017-Nov-23 18:00N 55°40' E 015°57'713.6
2017-Nov-23 17:30N 55°39' E 015°46'713.6
2017-Nov-23 17:00N 55°37' E 015°34'713.7
2017-Nov-23 16:30N 55°35' E 015°23'713.8
2017-Nov-23 16:00N 55°32' E 015°12'714.0
2017-Nov-23 15:30N 55°29' E 015°00'713.8
2017-Nov-23 15:00N 55°26' E 014°49'713.7
2017-Nov-23 14:30N 55°23' E 014°39'713.4
2017-Nov-23 14:00N 55°18' E 014°31'713.7
2017-Nov-23 13:30N 55°12' E 014°24'1112.2
2017-Nov-23 12:35N 55°10' E 014°05'1712.7
2017-Nov-23 11:14N 55°11' E 013°35'312.5
2017-Nov-23 11:00N 55°11' E 013°30'612.6
2017-Nov-23 10:30N 55°11' E 013°19'713.1
2017-Nov-23 10:00N 55°12' E 013°07'612.8
2017-Nov-23 09:30N 55°14' E 012°57'612.6
2017-Nov-23 09:00N 55°16' E 012°47'611.9
2017-Nov-23 08:30N 55°19' E 012°37'611.7
2017-Nov-23 08:00N 55°25' E 012°39'611.6
2017-Nov-23 07:30N 55°30' E 012°41'5 9.7
2017-Nov-23 07:00N 55°35' E 012°42'5 9.5
2017-Nov-23 06:30N 55°40' E 012°41'5 9.8
2017-Nov-23 06:00N 55°45' E 012°41'510.1
2017-Nov-23 05:30N 55°50' E 012°41'611.1
2017-Nov-23 05:00N 55°55' E 012°38'611.2
2017-Nov-23 04:30N 56°01' E 012°38'4 8.3
2017-Nov-23 04:00N 56°05' E 012°36'5 9.8
2017-Nov-23 03:30N 56°08' E 012°29'611.9
2017-Nov-23 03:00N 56°11' E 012°20'612.6
2017-Nov-23 02:30N 56°15' E 012°11'1111.3
2017-Nov-23 01:32N 56°24' E 012°01'011.8
2017-Nov-23 01:30N 56°24' E 012°00'3611.4
2017-Nov-22 22:21N 56°59' E 011°43'811.2
2017-Nov-22 21:38N 57°06' E 011°38'111.2
2017-Nov-22 21:30N 57°08' E 011°37'611.0
2017-Nov-22 20:59N 57°13' E 011°33'611.2
2017-Nov-22 20:30N 57°18' E 011°28'611.4
2017-Nov-22 20:00N 57°22' E 011°21'611.9
2017-Nov-22 19:30N 57°23' E 011°11'  
2017-Nov-20 00:30N 53°44' W 000°16'0 0.0
2017-Nov-20 00:00N 53°44' W 000°16'0 0.0
2017-Nov-19 23:30N 53°44' W 000°16'0 0.0
2017-Nov-19 23:00N 53°44' W 000°16'0 0.0
2017-Nov-19 22:30N 53°44' W 000°16'0 0.0
2017-Nov-19 22:00N 53°44' W 000°16'0 0.0
2017-Nov-19 21:30N 53°44' W 000°16'0 0.0
2017-Nov-19 21:00N 53°44' W 000°16'0 0.0
2017-Nov-19 20:30N 53°44' W 000°16'0 0.0
2017-Nov-19 19:54N 53°44' W 000°16'0 0.0
2017-Nov-19 19:30N 53°44' W 000°16'0 0.0
2017-Nov-19 19:00N 53°44' W 000°16'0 0.0
2017-Nov-19 18:30N 53°44' W 000°16'0 0.0
2017-Nov-19 18:00N 53°44' W 000°16'0 0.0
2017-Nov-19 17:30N 53°44' W 000°16'0 0.0
2017-Nov-19 17:00N 53°44' W 000°16'0 0.0
2017-Nov-19 16:30N 53°44' W 000°16'0 0.0
2017-Nov-19 16:00N 53°44' W 000°16'0 0.0
2017-Nov-19 15:30N 53°44' W 000°16'0 0.0
2017-Nov-19 15:00N 53°44' W 000°16'0 0.0
2017-Nov-19 14:30N 53°44' W 000°16'0 0.0
2017-Nov-19 14:00N 53°44' W 000°16'0 0.0
2017-Nov-19 13:30N 53°44' W 000°16'0 0.0
2017-Nov-19 13:00N 53°44' W 000°16'0 0.0
2017-Nov-19 12:30N 53°44' W 000°16'0 0.0
2017-Nov-19 12:00N 53°44' W 000°16'0 0.0
2017-Nov-19 11:30N 53°44' W 000°16'0 0.0
2017-Nov-19 11:00N 53°44' W 000°16'0 0.0
2017-Nov-19 10:30N 53°44' W 000°16'0 0.0
2017-Nov-19 10:00N 53°44' W 000°16'0 0.0
2017-Nov-19 09:30N 53°44' W 000°16'0 0.0
2017-Nov-19 09:00N 53°44' W 000°16'0 0.0
2017-Nov-19 08:30N 53°44' W 000°16'0 0.0
2017-Nov-19 08:00N 53°44' W 000°16'0 0.0
2017-Nov-19 07:30N 53°44' W 000°16'0 0.0
2017-Nov-19 07:00N 53°44' W 000°16'0 0.0
2017-Nov-19 06:30N 53°44' W 000°16'0 0.0
2017-Nov-19 06:00N 53°44' W 000°16'0 0.0
2017-Nov-19 05:30N 53°44' W 000°16'0 0.0
2017-Nov-19 05:00N 53°44' W 000°16'0 0.0
2017-Nov-19 04:30N 53°44' W 000°16'0 0.0
2017-Nov-19 04:00N 53°44' W 000°16'0 0.0
2017-Nov-19 03:30N 53°44' W 000°16'0 0.0
2017-Nov-19 03:00N 53°44' W 000°16'0 0.0
2017-Nov-19 02:30N 53°44' W 000°16'0 0.0
2017-Nov-19 02:00N 53°44' W 000°16'0 0.0
2017-Nov-19 01:30N 53°44' W 000°16'0 0.0
2017-Nov-19 01:00N 53°44' W 000°16'0 0.0
2017-Nov-19 00:30N 53°44' W 000°16'0 0.0
2017-Nov-19 00:00N 53°44' W 000°16'0 0.0
2017-Nov-18 23:30N 53°44' W 000°16'0 0.0
2017-Nov-18 23:00N 53°44' W 000°16'0 0.0
2017-Nov-18 22:30N 53°44' W 000°16'0 0.0
2017-Nov-18 22:00N 53°44' W 000°16'0 0.0
2017-Nov-18 21:30N 53°44' W 000°16'0 0.0
2017-Nov-18 21:00N 53°44' W 000°16'0 0.0
2017-Nov-18 20:30N 53°44' W 000°16'0 0.0
2017-Nov-18 20:00N 53°44' W 000°16'0 0.0
2017-Nov-18 19:27N 53°44' W 000°16'0 0.0
2017-Nov-18 19:00N 53°44' W 000°16'0 0.0
2017-Nov-18 18:30N 53°44' W 000°16'0 0.7
2017-Nov-18 18:00N 53°44' W 000°16'0 0.3
2017-Nov-18 17:30N 53°44' W 000°16'1 1.3
2017-Nov-18 17:00N 53°44' W 000°16'2 4.9
2017-Nov-18 16:30N 53°42' W 000°14'4 7.4
2017-Nov-18 16:00N 53°38' W 000°11'5 9.1
2017-Nov-18 15:30N 53°37' W 000°04'611.5
2017-Nov-18 15:00N 53°35' E 000°05'510.4
2017-Nov-18 14:30N 53°33' E 000°14'5 9.3
2017-Nov-18 14:00N 53°36' E 000°19'61 4.0
2017-Nov-17 22:29N 53°20' E 001°59'510.4
2017-Nov-17 22:00N 53°17' E 002°06'5 9.9
2017-Nov-17 21:30N 53°14' E 002°12'5 9.3
2017-Nov-17 21:00N 53°11' E 002°17'8610.9
2017-Nov-17 13:10N 51°45' E 002°08'313.1
2017-Nov-17 12:56N 51°43' E 002°06'512.9
2017-Nov-17 12:30N 51°38' E 002°02'713.1
2017-Nov-17 12:00N 51°32' E 001°58'510.8
2017-Nov-17 11:30N 51°27' E 002°00'510.6
2017-Nov-17 11:00N 51°21' E 001°59'612.7
2017-Nov-17 10:30N 51°16' E 001°53'612.3
2017-Nov-17 10:00N 51°11' E 001°47'611.7
2017-Nov-17 09:30N 51°07' E 001°41'511.0
2017-Nov-17 09:00N 51°03' E 001°35'510.3
2017-Nov-17 08:30N 50°59' E 001°30'5 9.0
2017-Nov-17 08:00N 50°55' E 001°25'4 8.8
2017-Nov-17 07:30N 50°51' E 001°24'4 8.7
2017-Nov-17 07:00N 50°47' E 001°22'4 8.7
2017-Nov-17 06:30N 50°43' E 001°20'33 8.9
2017-Nov-17 02:47N 50°26' E 000°35'7 9.3
2017-Nov-17 01:59N 50°24' E 000°24'4 9.2
2017-Nov-17 01:30N 50°22' E 000°17'5 9.3
2017-Nov-17 01:00N 50°21' E 000°10'5 9.5
2017-Nov-17 00:30N 50°20' E 000°03'5 9.6
2017-Nov-17 00:00N 50°19' W 000°04'4811.5
2017-Nov-16 19:50N 50°06' W 001°17'514.7
2017-Nov-16 19:31N 50°05' W 001°24'714.9
2017-Nov-16 19:01N 50°03' W 001°35'815.2
2017-Nov-16 18:30N 50°01' W 001°47'815.3
2017-Nov-16 18:01N 49°59' W 001°58'714.8
2017-Nov-16 17:30N 49°57' W 002°09'2413.3
2017-Nov-16 15:43N 49°51' W 002°45'312.5
2017-Nov-16 15:30N 49°50' W 002°49'812.1
2017-Nov-16 14:52N 49°46' W 002°60'411.7
2017-Nov-16 14:30N 49°44' W 003°05'5911.2
2017-Nov-16 09:17N 49°15' W 004°24'410.7
2017-Nov-16 08:53N 49°13' W 004°29'1010.6
2017-Nov-16 07:59N 49°08' W 004°42'7 9.7
2017-Nov-16 07:19N 49°05' W 004°50'410.2
2017-Nov-16 06:58N 49°03' W 004°55'511.2
2017-Nov-16 06:30N 49°00' W 005°02'711.4
2017-Nov-16 05:55N 48°57' W 005°11'511.6
2017-Nov-16 05:27N 48°54' W 005°18'511.9
2017-Nov-16 05:00N 48°52' W 005°25'812.4
2017-Nov-16 04:23N 48°48' W 005°35'612.1
2017-Nov-16 03:52N 48°43' W 005°40'512.5
2017-Nov-16 03:27N 48°38' W 005°44'612.6
2017-Nov-16 03:00N 48°33' W 005°48'612.5
2017-Nov-16 02:30N 48°27' W 005°52'713.1
2017-Nov-16 02:00N 48°22' W 005°57'613.0
2017-Nov-16 01:31N 48°16' W 006°01'713.1
2017-Nov-16 00:56N 48°09' W 006°06'613.1
2017-Nov-16 00:29N 48°04' W 006°11'713.2
2017-Nov-15 23:58N 47°58' W 006°15'713.1
2017-Nov-15 23:27N 47°52' W 006°20'713.0
2017-Nov-15 22:53N 47°45' W 006°25'712.8
2017-Nov-15 22:22N 47°40' W 006°29'512.6
2017-Nov-15 21:57N 47°35' W 006°33'712.5
2017-Nov-15 21:23N 47°29' W 006°38'511.8
2017-Nov-15 20:56N 47°24' W 006°41'3011.9
2017-Nov-15 18:24N 46°57' W 007°02'912.1
2017-Nov-15 17:41N 46°49' W 007°08'46410.6
2017-Nov-13 21:49N 39°20' W 009°51'  

Dump ship's entire track history